Emigrant Pass, Nevada
Current Conditions -  °F | °C
As of 8:56 AM on Thursday 30 Oct 2014 (Local Time) from KEKO Reporting Station
Clear Clear  
Wind Chill: 33°   Ceiling: Unl
Heat Index: 37°   Visibility: 10mi
Dew Point: 21°   Wind: 5mph
Humidity: 52%   Direction: 90°E
Pressure: 30.25"   Gusts: NA
Location:  40.4796°N, 116.369°W
Report Text: KEKO 301556Z AUTO 09004KT 10SM CLR 03/M06 A3025 RMK AO2 SLP250 T00281061
Loading
Personal Weather Stations






























Interactive Weather Map
Tropical Storm Tracking
New forecast layout! Learn more

10-Day Weather Forecast

Advertisements
Track Severe Weather on mobile